createdAt,value
2017-06-10T00:00:50.647Z,16.67
2017-06-10T00:01:50.672Z,16.72
2017-06-10T00:02:50.712Z,16.73
2017-06-10T00:03:50.726Z,16.67
2017-06-10T00:04:50.804Z,16.66
2017-06-10T00:05:50.868Z,16.62
2017-06-10T00:06:50.829Z,16.52
2017-06-10T00:07:50.860Z,16.47
2017-06-10T00:08:50.918Z,16.33
2017-06-10T00:09:50.977Z,16.37
2017-06-10T00:10:50.987Z,16.32
2017-06-10T00:11:51.044Z,16.29
2017-06-10T00:12:51.038Z,16.26
2017-06-10T00:13:51.092Z,16.3
2017-06-10T00:14:51.159Z,16.32
2017-06-10T00:15:51.129Z,16.32
2017-06-10T00:16:51.196Z,16.3
2017-06-10T00:17:51.259Z,16.32
2017-06-10T00:18:51.269Z,16.3
2017-06-10T00:19:51.295Z,16.3
2017-06-10T00:20:51.359Z,16.32
2017-06-10T00:21:51.385Z,16.26
2017-06-10T00:22:51.430Z,16.32
2017-06-10T00:23:51.464Z,16.32
2017-06-10T00:24:51.546Z,16.21
2017-06-10T00:25:51.527Z,16.33
2017-06-10T00:26:51.569Z,16.27
2017-06-10T00:27:51.601Z,16.3
2017-06-10T00:28:51.607Z,16.25
2017-06-10T00:29:51.660Z,16.29
2017-06-10T00:30:51.704Z,16.27
2017-06-10T00:31:51.740Z,16.25
2017-06-10T00:32:51.766Z,16.29
2017-06-10T00:33:51.779Z,16.29
2017-06-10T00:34:51.836Z,16.25
2017-06-10T00:35:51.874Z,16.27
2017-06-10T00:36:51.909Z,16.22
2017-06-10T00:37:51.947Z,16.18
2017-06-10T00:38:51.979Z,16.21
2017-06-10T00:39:52.014Z,16.27
2017-06-10T00:40:52.033Z,16.25
2017-06-10T00:41:52.083Z,16.26
2017-06-10T00:42:52.122Z,16.18
2017-06-10T00:43:52.160Z,16.27
2017-06-10T00:44:52.203Z,16.21
2017-06-10T00:45:52.209Z,16.27
2017-06-10T00:46:52.242Z,16.25
2017-06-10T00:47:52.301Z,16.22
2017-06-10T00:48:52.327Z,16.25
2017-06-10T00:49:52.366Z,16.14
2017-06-10T00:50:52.404Z,16.16
2017-06-10T00:51:52.422Z,16.16
2017-06-10T00:52:52.467Z,16.14
2017-06-10T00:53:52.488Z,16.11
2017-06-10T00:54:52.546Z,16.14
2017-06-10T00:55:52.557Z,16.17
2017-06-10T00:56:52.630Z,16.17
2017-06-10T00:57:52.652Z,16.18
2017-06-10T00:58:52.682Z,16.21
2017-06-10T00:59:52.717Z,16.26
2017-06-10T01:00:52.751Z,16.17
2017-06-10T01:01:52.784Z,16.08
2017-06-10T01:02:52.796Z,16.16
2017-06-10T01:03:52.836Z,15.98
2017-06-10T01:04:52.914Z,15.98
2017-06-10T01:05:52.926Z,15.96
2017-06-10T01:06:52.969Z,15.86
2017-06-10T01:07:52.984Z,15.89
2017-06-10T01:08:53.041Z,15.86
2017-06-10T01:09:53.061Z,15.89
2017-06-10T01:10:53.101Z,15.81
2017-06-10T01:11:53.122Z,15.77
2017-06-10T01:12:53.131Z,15.78
2017-06-10T01:13:53.204Z,15.83
2017-06-10T01:14:53.223Z,15.91
2017-06-10T01:15:53.258Z,15.83
2017-06-10T01:16:53.285Z,15.83
2017-06-10T01:17:53.349Z,15.89
2017-06-10T01:18:53.360Z,15.92
2017-06-10T01:19:53.392Z,15.91
2017-06-10T01:20:53.451Z,15.96
2017-06-10T01:21:53.482Z,15.99
2017-06-10T01:22:53.515Z,15.96
2017-06-10T01:23:53.553Z,15.98
2017-06-10T01:24:53.583Z,16.08
2017-06-10T01:25:53.620Z,16.1
2017-06-10T01:26:53.675Z,16.11
2017-06-10T01:27:53.687Z,16.1
2017-06-10T01:28:53.731Z,16.02
2017-06-10T01:29:53.780Z,16.1
2017-06-10T01:30:53.801Z,16.1
2017-06-10T01:31:53.811Z,16.14
2017-06-10T01:32:53.848Z,16.08
2017-06-10T01:33:53.900Z,16.16
2017-06-10T01:34:53.918Z,16.1
2017-06-10T01:35:53.957Z,16.1
2017-06-10T01:36:53.986Z,16.13
2017-06-10T01:37:54.041Z,16.11
2017-06-10T01:38:54.061Z,16.02
2017-06-10T01:39:54.109Z,15.95
2017-06-10T01:40:54.139Z,15.98
2017-06-10T01:41:54.213Z,15.98
2017-06-10T01:42:54.222Z,15.95
2017-06-10T01:43:54.258Z,15.86
2017-06-10T01:44:54.268Z,15.89
2017-06-10T01:45:54.278Z,15.93
2017-06-10T01:46:54.358Z,15.86
2017-06-10T01:47:54.357Z,15.84
2017-06-10T01:48:54.408Z,15.8
2017-06-10T01:49:54.478Z,15.81
2017-06-10T01:50:54.482Z,15.71
2017-06-10T01:51:54.536Z,15.71
2017-06-10T01:52:54.545Z,15.74
2017-06-10T01:53:54.604Z,15.74
2017-06-10T01:54:54.660Z,15.77
2017-06-10T01:55:54.666Z,15.71
2017-06-10T01:56:54.700Z,15.7
2017-06-10T01:57:54.736Z,15.68
2017-06-10T01:58:54.778Z,15.77
2017-06-10T01:59:54.809Z,15.78
2017-06-10T02:00:54.856Z,15.7
2017-06-10T02:01:54.878Z,15.73
2017-06-10T02:02:54.901Z,15.78
2017-06-10T02:03:54.942Z,15.74
2017-06-10T02:04:54.972Z,15.78
2017-06-10T02:05:55.035Z,15.83
2017-06-10T02:06:55.030Z,15.83
2017-06-10T02:07:55.070Z,15.89
2017-06-10T02:08:55.116Z,15.86
2017-06-10T02:09:55.151Z,15.84
2017-06-10T02:10:55.174Z,15.83
2017-06-10T02:11:55.223Z,15.89
2017-06-10T02:12:55.262Z,15.86
2017-06-10T02:13:55.295Z,15.78
2017-06-10T02:14:55.335Z,15.8
2017-06-10T02:15:55.369Z,15.7
2017-06-10T02:16:55.379Z,15.78
2017-06-10T02:17:55.460Z,15.67
2017-06-10T02:18:55.474Z,15.58
2017-06-10T02:19:55.498Z,15.6
2017-06-10T02:20:55.548Z,15.55
2017-06-10T02:21:55.567Z,15.45
2017-06-10T02:22:55.604Z,15.35
2017-06-10T02:23:55.639Z,15.33
2017-06-10T02:24:55.659Z,15.22
2017-06-10T02:25:55.699Z,15.22
2017-06-10T02:26:55.741Z,15.13
2017-06-10T02:27:55.773Z,15.07
2017-06-10T02:28:55.822Z,15.01
2017-06-10T02:29:55.828Z,14.93
2017-06-10T02:30:55.863Z,14.95
2017-06-10T02:31:55.917Z,14.93
2017-06-10T02:32:55.948Z,14.94
2017-06-10T02:33:55.971Z,14.8
2017-06-10T02:34:56.020Z,14.79
2017-06-10T02:35:56.060Z,14.79
2017-06-10T02:36:56.094Z,14.7
2017-06-10T02:37:56.123Z,14.71
2017-06-10T02:38:56.170Z,14.71
2017-06-10T02:39:56.198Z,14.69
2017-06-10T02:40:56.222Z,14.67
2017-06-10T02:41:56.270Z,14.61
2017-06-10T02:42:56.293Z,14.53
2017-06-10T02:43:56.324Z,14.56
2017-06-10T02:44:56.362Z,14.52
2017-06-10T02:45:56.396Z,14.56
2017-06-10T02:46:56.446Z,14.51
2017-06-10T02:47:56.468Z,14.59
2017-06-10T02:48:56.492Z,14.48
2017-06-10T02:49:56.527Z,14.46
2017-06-10T02:50:56.572Z,14.48
2017-06-10T02:51:56.610Z,14.48
2017-06-10T02:52:56.629Z,14.41
2017-06-10T02:53:56.670Z,14.45
2017-06-10T02:54:56.696Z,14.45
2017-06-10T02:55:56.736Z,14.42
2017-06-10T02:56:56.773Z,14.42
2017-06-10T02:57:56.817Z,14.33
2017-06-10T02:58:56.861Z,14.36
2017-06-10T02:59:56.896Z,14.33
2017-06-10T03:00:56.930Z,14.31
2017-06-10T03:01:56.953Z,14.28
2017-06-10T03:02:56.981Z,14.26
2017-06-10T03:03:57.022Z,14.3
2017-06-10T03:04:57.041Z,14.24
2017-06-10T03:05:57.103Z,14.23
2017-06-10T03:06:57.117Z,14.26
2017-06-10T03:07:57.160Z,14.27
2017-06-10T03:08:57.192Z,14.2
2017-06-10T03:09:57.229Z,14.2
2017-06-10T03:10:57.284Z,14.13
2017-06-10T03:11:57.290Z,14.12
2017-06-10T03:12:57.292Z,14.16
2017-06-10T03:13:57.363Z,14.16
2017-06-10T03:14:57.392Z,14.12
2017-06-10T03:15:57.415Z,14.15
2017-06-10T03:16:57.469Z,14.09
2017-06-10T03:17:57.496Z,14.09
2017-06-10T03:18:57.536Z,14.11
2017-06-10T03:19:57.560Z,14.09
2017-06-10T03:20:57.595Z,14.15
2017-06-10T03:21:57.629Z,14.11
2017-06-10T03:22:57.670Z,14.08
2017-06-10T03:23:57.700Z,14.03
2017-06-10T03:24:57.745Z,14.16
2017-06-10T03:25:57.793Z,14.01
2017-06-10T03:26:57.802Z,14.12
2017-06-10T03:27:57.839Z,14.12
2017-06-10T03:28:57.872Z,14.09
2017-06-10T03:29:57.890Z,14.19
2017-06-10T03:30:57.942Z,14.11
2017-06-10T03:31:57.972Z,14.12
2017-06-10T03:32:58.011Z,14.05
2017-06-10T03:33:58.262Z,14.12
2017-06-10T03:34:58.073Z,14.15
2017-06-10T03:35:58.116Z,14.12
2017-06-10T03:36:58.142Z,14.16
2017-06-10T03:37:58.169Z,14.02
2017-06-10T03:38:58.216Z,14.13
2017-06-10T03:39:58.257Z,14.21
2017-06-10T03:40:58.271Z,14.15
2017-06-10T03:41:58.289Z,14.15
2017-06-10T03:42:58.356Z,14.09
2017-06-10T03:43:58.378Z,14.16
2017-06-10T03:44:58.424Z,14.15
2017-06-10T03:45:58.459Z,14.16
2017-06-10T03:46:58.472Z,14.2
2017-06-10T03:47:58.530Z,14.2
2017-06-10T03:48:58.560Z,14.23
2017-06-10T03:49:58.614Z,14.23
2017-06-10T03:50:58.608Z,14.24
2017-06-10T03:51:58.660Z,14.16
2017-06-10T03:52:58.667Z,14.21
2017-06-10T03:53:58.739Z,14.31
2017-06-10T03:54:58.772Z,14.26
2017-06-10T03:55:58.792Z,14.34
2017-06-10T03:56:58.830Z,14.3
2017-06-10T03:57:58.864Z,14.31
2017-06-10T03:58:58.894Z,14.39
2017-06-10T03:59:58.934Z,14.42
2017-06-10T04:00:59.009Z,14.34
2017-06-10T04:01:59.082Z,14.42
2017-06-10T04:02:59.050Z,14.33
2017-06-10T04:03:59.079Z,14.42
2017-06-10T04:04:59.161Z,14.48
2017-06-10T04:05:59.192Z,14.51
2017-06-10T04:06:59.178Z,14.44
2017-06-10T04:07:59.221Z,14.66
2017-06-10T04:08:59.302Z,14.66
2017-06-10T04:09:59.276Z,14.71
2017-06-10T04:10:59.354Z,14.66
2017-06-10T04:11:59.389Z,14.79
2017-06-10T04:12:59.386Z,15
2017-06-10T04:13:59.494Z,15.4
2017-06-10T04:14:59.499Z,15.84
2017-06-10T04:15:59.486Z,16.37
2017-06-10T04:16:59.534Z,16.81
2017-06-10T04:17:59.614Z,17.12
2017-06-10T04:18:59.594Z,17.63
2017-06-10T04:19:59.659Z,18.14
2017-06-10T04:20:59.679Z,18.63
2017-06-10T04:21:59.747Z,18.93
2017-06-10T04:22:59.745Z,19.28
2017-06-10T04:23:59.783Z,19.8
2017-06-10T04:24:59.859Z,20.63
2017-06-10T04:25:59.855Z,21.21
2017-06-10T04:26:59.916Z,21.67
2017-06-10T04:27:59.926Z,22.23
2017-06-10T04:28:59.985Z,22.61
2017-06-10T04:29:59.995Z,22.61
2017-06-10T04:31:00.089Z,22.3
2017-06-10T04:32:00.116Z,21.7
2017-06-10T04:33:00.142Z,21.21
2017-06-10T04:34:00.158Z,20.49
2017-06-10T04:35:00.262Z,19.97
2017-06-10T04:36:00.226Z,19.52
2017-06-10T04:37:00.296Z,19.17
2017-06-10T04:38:00.297Z,18.86
2017-06-10T04:39:00.379Z,18.63
2017-06-10T04:40:00.403Z,18.39
2017-06-10T04:41:00.410Z,18.34
2017-06-10T04:42:00.512Z,18.13
2017-06-10T04:43:00.516Z,18.19
2017-06-10T04:44:00.531Z,18.26
2017-06-10T04:45:00.572Z,18.36
2017-06-10T04:46:00.616Z,18.59
2017-06-10T04:47:00.663Z,18.63
2017-06-10T04:48:00.698Z,18.59
2017-06-10T04:49:00.729Z,18.56
2017-06-10T04:50:00.759Z,18.45
2017-06-10T04:51:00.790Z,18.31
2017-06-10T04:52:00.839Z,18.24
2017-06-10T04:53:00.870Z,18.1
2017-06-10T04:54:00.890Z,18.05
2017-06-10T04:55:01.012Z,18.05
2017-06-10T04:56:01.020Z,18.08
2017-06-10T04:57:01.049Z,18.11
2017-06-10T04:58:01.043Z,18.03
2017-06-10T04:59:01.126Z,18.08
2017-06-10T05:00:01.121Z,18.02
2017-06-10T05:01:01.195Z,18.02
2017-06-10T05:02:01.239Z,18.02
2017-06-10T05:03:01.232Z,17.99
2017-06-10T05:04:01.270Z,17.94
2017-06-10T05:05:01.321Z,17.9
2017-06-10T05:06:01.421Z,17.84
2017-06-10T05:07:01.427Z,17.9
2017-06-10T05:08:01.497Z,18.03
2017-06-10T05:09:01.495Z,18.14
2017-06-10T05:10:01.530Z,18.16
2017-06-10T05:11:01.522Z,18.13
2017-06-10T05:12:01.582Z,18.08
2017-06-10T05:13:01.644Z,18.16
2017-06-10T05:14:01.661Z,18.14
2017-06-10T05:15:01.732Z,18.19
2017-06-10T05:16:01.749Z,18.29
2017-06-10T05:17:01.797Z,18.45
2017-06-10T05:18:01.838Z,18.36
2017-06-10T05:19:01.875Z,18.38
2017-06-10T05:20:01.876Z,18.32
2017-06-10T05:21:01.940Z,18.29
2017-06-10T05:22:02.013Z,18.34
2017-06-10T05:23:01.991Z,18.19
2017-06-10T05:24:02.022Z,18.17
2017-06-10T05:25:02.096Z,18.23
2017-06-10T05:26:02.110Z,18.2
2017-06-10T05:27:02.166Z,18.2
2017-06-10T05:28:02.197Z,18.2
2017-06-10T05:29:02.309Z,18.26
2017-06-10T05:30:02.255Z,18.59
2017-06-10T05:31:02.348Z,18.99
2017-06-10T05:32:02.335Z,19.65
2017-06-10T05:33:02.362Z,20.41
2017-06-10T05:34:02.411Z,21.04
2017-06-10T05:35:02.441Z,21.23
2017-06-10T05:36:02.483Z,21.25
2017-06-10T05:37:02.552Z,21.06
2017-06-10T05:38:02.578Z,20.9
2017-06-10T05:39:02.633Z,20.71
2017-06-10T05:40:02.621Z,20.57
2017-06-10T05:41:02.701Z,20.27
2017-06-10T05:42:02.754Z,20.2
2017-06-10T05:43:02.745Z,20.04
2017-06-10T05:44:02.840Z,20.26
2017-06-10T05:45:02.845Z,20.37
2017-06-10T05:46:02.864Z,20.41
2017-06-10T05:47:02.939Z,20.37
2017-06-10T05:48:02.952Z,20.4
2017-06-10T05:49:02.991Z,20.4
2017-06-10T05:50:03.049Z,20.4
2017-06-10T05:51:03.050Z,20.35
2017-06-10T05:52:03.138Z,20.23
2017-06-10T05:53:03.121Z,20.16
2017-06-10T05:54:03.191Z,20.11
2017-06-10T05:55:03.230Z,20.23
2017-06-10T05:56:03.273Z,20.25
2017-06-10T05:57:03.296Z,20.3
2017-06-10T05:58:03.398Z,20.38
2017-06-10T05:59:03.397Z,20.37
2017-06-10T06:00:03.467Z,20.44
2017-06-10T06:01:03.430Z,20.64
2017-06-10T06:02:03.462Z,21.06
2017-06-10T06:03:03.543Z,21.41
2017-06-10T06:04:03.561Z,21.74
2017-06-10T06:05:03.591Z,21.86
2017-06-10T06:06:03.643Z,22.04
2017-06-10T06:07:03.651Z,22.14
2017-06-10T06:08:03.708Z,22.18
2017-06-10T06:09:03.734Z,22.22
2017-06-10T06:10:03.835Z,22.24
2017-06-10T06:11:03.807Z,22.3
2017-06-10T06:12:03.834Z,22.49
2017-06-10T06:13:03.892Z,22.73
2017-06-10T06:14:03.942Z,22.78
2017-06-10T06:15:03.973Z,22.78
2017-06-10T06:16:04.036Z,22.91
2017-06-10T06:17:04.038Z,23.03
2017-06-10T06:18:04.101Z,23.29
2017-06-10T06:19:04.145Z,23.75
2017-06-10T06:20:04.197Z,24.54
2017-06-10T06:21:04.205Z,25.54
2017-06-10T06:22:04.228Z,26.72
2017-06-10T06:23:04.278Z,27.66
2017-06-10T06:24:04.389Z,28.68
2017-06-10T06:25:04.382Z,29.6
2017-06-10T06:26:04.426Z,30.48
2017-06-10T06:27:04.459Z,31.34
2017-06-10T06:28:04.543Z,32.23
2017-06-10T06:29:04.554Z,33.01
2017-06-10T06:30:04.573Z,33.89
2017-06-10T06:31:04.613Z,34.52
2017-06-10T06:32:04.649Z,35.08
2017-06-10T06:33:04.715Z,35.18
2017-06-10T06:34:04.752Z,35.16
2017-06-10T06:35:04.796Z,35.39
2017-06-10T06:36:04.801Z,35.82
2017-06-10T06:37:04.843Z,36.14
2017-06-10T06:38:04.928Z,36.28
2017-06-10T06:39:04.947Z,36.41
2017-06-10T06:40:04.992Z,36.58
2017-06-10T06:41:05.067Z,36.51
2017-06-10T06:42:05.070Z,36.7
2017-06-10T06:43:05.146Z,36.78
2017-06-10T06:44:05.145Z,36.99
2017-06-10T06:45:05.217Z,37.22
2017-06-10T06:46:05.245Z,37.41
2017-06-10T06:47:05.311Z,37.72
2017-06-10T06:48:05.339Z,37.94
2017-06-10T06:49:05.412Z,38.09
2017-06-10T06:50:05.651Z,38.35
2017-06-10T06:51:05.483Z,38.71
2017-06-10T06:52:05.573Z,38.74
2017-06-10T06:53:05.561Z,38.15
2017-06-10T06:54:05.624Z,37.84
2017-06-10T06:55:05.651Z,37.76
2017-06-10T06:56:05.704Z,37.75
2017-06-10T06:57:05.786Z,37.88
2017-06-10T06:58:05.854Z,38.2
2017-06-10T06:59:05.868Z,38.68
2017-06-10T07:00:05.912Z,39.11
2017-06-10T07:01:06.057Z,39.52
2017-06-10T07:02:06.315Z,39.91
2017-06-10T07:03:06.094Z,40.18
2017-06-10T07:04:06.094Z,40.25
2017-06-10T07:05:06.151Z,40.24
2017-06-10T07:06:06.167Z,39.37
2017-06-10T07:07:06.231Z,37.96
2017-06-10T07:08:06.284Z,37.69
2017-06-10T07:09:06.287Z,38.03
2017-06-10T07:10:06.851Z,38.56
2017-06-10T07:11:06.388Z,38.05
2017-06-10T07:12:06.444Z,37.12
2017-06-10T07:13:06.560Z,36.18
2017-06-10T07:14:06.536Z,35.18
2017-06-10T07:15:06.897Z,35.12
2017-06-10T07:16:06.648Z,34.84
2017-06-10T07:17:06.701Z,33.69
2017-06-10T07:18:06.772Z,32.79
2017-06-10T07:19:06.748Z,32.8
2017-06-10T07:20:06.819Z,32.62
2017-06-10T07:21:06.875Z,32
2017-06-10T07:22:07.107Z,32.05
2017-06-10T07:23:06.903Z,32.53
2017-06-10T07:24:06.989Z,33.68
2017-06-10T07:25:07.039Z,35.02
2017-06-10T07:26:07.123Z,35.92
2017-06-10T07:27:07.111Z,36.88
2017-06-10T07:28:07.139Z,37.51
2017-06-10T07:29:07.255Z,38.47
2017-06-10T07:30:07.255Z,39.33
2017-06-10T07:31:07.274Z,39.78
2017-06-10T07:32:07.432Z,38.93
2017-06-10T07:33:07.362Z,38.06
2017-06-10T07:34:07.444Z,38.09
2017-06-10T07:35:07.495Z,38.35
2017-06-10T07:36:07.489Z,38.2
2017-06-10T07:37:07.608Z,38.39
2017-06-10T07:38:07.630Z,38
2017-06-10T07:39:07.630Z,36.7
2017-06-10T07:40:07.719Z,35.18
2017-06-10T07:41:07.727Z,34.18
2017-06-10T07:42:07.763Z,34.29
2017-06-10T07:43:07.850Z,33.75
2017-06-10T07:44:07.900Z,32.38
2017-06-10T07:45:07.978Z,31.36
2017-06-10T07:46:08.006Z,31.78
2017-06-10T07:47:08.013Z,32.93
2017-06-10T07:48:08.076Z,33.62
2017-06-10T07:49:08.112Z,33.08
2017-06-10T07:50:08.132Z,32.25
2017-06-10T07:51:08.167Z,31.16
2017-06-10T07:52:08.199Z,30.47
2017-06-10T07:53:08.332Z,29.67
2017-06-10T07:54:08.335Z,29.57
2017-06-10T07:55:08.327Z,30.57
2017-06-10T07:56:08.686Z,31.56
2017-06-10T07:57:08.432Z,32.06
2017-06-10T07:58:08.481Z,33.28
2017-06-10T07:59:08.579Z,34.81
2017-06-10T08:00:08.591Z,36.36
2017-06-10T08:01:08.600Z,37.18
2017-06-10T08:02:08.676Z,37.93
2017-06-10T08:03:08.721Z,38.78
2017-06-10T08:04:08.730Z,39.76
2017-06-10T08:05:08.808Z,40.01
2017-06-10T08:06:08.836Z,40.24
2017-06-10T08:07:09.150Z,40.27
2017-06-10T08:08:08.914Z,39.45
2017-06-10T08:09:09.050Z,39.41
2017-06-10T08:10:09.271Z,39.23
2017-06-10T08:11:09.088Z,38.17
2017-06-10T08:12:09.089Z,37.87
2017-06-10T08:13:09.178Z,38.18
2017-06-10T08:14:09.189Z,38.71
2017-06-10T08:15:09.285Z,37.93
2017-06-10T08:16:09.290Z,36.61
2017-06-10T08:17:09.351Z,35.43
2017-06-10T08:18:09.396Z,34.89
2017-06-10T08:19:09.403Z,35.76
2017-06-10T08:20:09.436Z,36.96
2017-06-10T08:21:09.500Z,37.51
2017-06-10T08:22:09.781Z,36.99
2017-06-10T08:23:09.596Z,36.53
2017-06-10T08:24:09.643Z,36.99
2017-06-10T08:25:09.702Z,37.98
2017-06-10T08:26:09.813Z,38.81
2017-06-10T08:27:09.997Z,38.49
2017-06-10T08:28:09.875Z,38.15
2017-06-10T08:29:09.900Z,38.8
2017-06-10T08:30:09.906Z,39.69
2017-06-10T08:31:09.989Z,40.5
2017-06-10T08:32:09.995Z,41.18
2017-06-10T08:33:10.059Z,41.88
2017-06-10T08:34:10.106Z,42.6
2017-06-10T08:35:10.143Z,43.15
2017-06-10T08:36:10.194Z,43.77
2017-06-10T08:37:10.273Z,43.85
2017-06-10T08:38:10.284Z,43.71
2017-06-10T08:39:10.325Z,43.99
2017-06-10T08:40:10.400Z,44.3
2017-06-10T08:41:10.431Z,44.83
2017-06-10T08:42:10.525Z,45.26
2017-06-10T08:43:10.586Z,45.72
2017-06-10T08:44:10.634Z,46
2017-06-10T08:45:10.748Z,46.04
2017-06-10T08:46:10.699Z,45.9
2017-06-10T08:47:10.749Z,44.8
2017-06-10T08:48:10.784Z,43.1
2017-06-10T08:49:10.818Z,41.65
2017-06-10T08:50:10.983Z,40.03
2017-06-10T08:51:10.950Z,39.22
2017-06-10T08:52:10.954Z,38.17
2017-06-10T08:53:10.997Z,36.99
2017-06-10T08:54:11.081Z,36.01
2017-06-10T08:55:11.122Z,34.84
2017-06-10T08:56:11.209Z,34
2017-06-10T08:57:11.236Z,33.78
2017-06-10T08:58:11.239Z,33.74
2017-06-10T08:59:11.314Z,33.63
2017-06-10T09:00:11.615Z,34.56
2017-06-10T09:01:11.418Z,35.79
2017-06-10T09:02:11.435Z,36.05
2017-06-10T09:03:11.455Z,35.76
2017-06-10T09:04:11.555Z,36.52
2017-06-10T09:05:11.593Z,37.76
2017-06-10T09:06:11.623Z,38.92
2017-06-10T09:07:11.673Z,40.06
2017-06-10T09:08:11.726Z,40.48
2017-06-10T09:09:11.801Z,39.96
2017-06-10T09:10:11.806Z,38.97
2017-06-10T09:11:11.840Z,37.94
2017-06-10T09:12:11.877Z,36.52
2017-06-10T09:13:11.940Z,35.33
2017-06-10T09:14:11.986Z,35.49
2017-06-10T09:15:12.016Z,36.4
2017-06-10T09:16:12.069Z,37.72
2017-06-10T09:17:12.094Z,38.7
2017-06-10T09:18:12.190Z,38.55
2017-06-10T09:19:12.208Z,38.35
2017-06-10T09:20:12.360Z,37.54
2017-06-10T09:21:12.308Z,36.19
2017-06-10T09:22:12.379Z,34.69
2017-06-10T09:23:12.426Z,33.01
2017-06-10T09:24:12.447Z,31.65
2017-06-10T09:25:12.819Z,30.91
2017-06-10T09:26:12.548Z,31.6
2017-06-10T09:27:12.598Z,33.11
2017-06-10T09:28:12.608Z,34.94
2017-06-10T09:29:12.684Z,36.59
2017-06-10T09:30:12.700Z,38
2017-06-10T09:31:12.793Z,39.03
2017-06-10T09:32:12.822Z,39.69
2017-06-10T09:33:12.847Z,40.3
2017-06-10T09:34:12.949Z,41.01
2017-06-10T09:35:12.966Z,41.75
2017-06-10T09:36:12.998Z,42.25
2017-06-10T09:37:13.028Z,41.99
2017-06-10T09:38:13.109Z,41.65
2017-06-10T09:39:13.158Z,41.82
2017-06-10T09:40:13.205Z,42.1
2017-06-10T09:41:13.277Z,42.32
2017-06-10T09:42:13.271Z,42.79
2017-06-10T09:43:13.323Z,43.35
2017-06-10T09:44:13.382Z,43.92
2017-06-10T09:45:13.445Z,44.12
2017-06-10T09:46:13.502Z,44.24
2017-06-10T09:47:13.510Z,44.55
2017-06-10T09:48:13.598Z,44.9
2017-06-10T09:49:13.621Z,45.18
2017-06-10T09:50:13.660Z,45.47
2017-06-10T09:51:13.712Z,44.64
2017-06-10T09:52:13.799Z,43.61
2017-06-10T09:53:13.827Z,43.59
2017-06-10T09:54:13.892Z,43.95
2017-06-10T09:55:13.912Z,44.4
2017-06-10T09:56:13.985Z,44.65
2017-06-10T09:57:14.028Z,44.66
2017-06-10T09:58:14.119Z,44.27
2017-06-10T09:59:14.119Z,43.73
2017-06-10T10:00:14.413Z,43.24
2017-06-10T10:01:14.239Z,42.73
2017-06-10T10:02:14.331Z,42.35
2017-06-10T10:03:14.334Z,41.68
2017-06-10T10:04:14.377Z,40.41
2017-06-10T10:05:14.439Z,39.18
2017-06-10T10:06:14.509Z,38.52
2017-06-10T10:07:14.538Z,37.57
2017-06-10T10:08:14.593Z,37.18
2017-06-10T10:09:14.609Z,37.8
2017-06-10T10:10:14.744Z,38.81
2017-06-10T10:11:14.729Z,39.84
2017-06-10T10:12:14.759Z,40.62
2017-06-10T10:13:14.838Z,41.44
2017-06-10T10:14:14.904Z,42.18
2017-06-10T10:15:14.915Z,42.94
2017-06-10T10:16:15.000Z,43.23
2017-06-10T10:17:15.017Z,43.19
2017-06-10T10:18:15.063Z,43.51
2017-06-10T10:19:15.101Z,43.78
2017-06-10T10:20:15.195Z,43.92
2017-06-10T10:21:15.215Z,43.71
2017-06-10T10:22:15.296Z,43.74
2017-06-10T10:23:15.330Z,43.83
2017-06-10T10:24:15.346Z,43.99
2017-06-10T10:25:15.435Z,44.11
2017-06-10T10:26:15.463Z,44.05
2017-06-10T10:27:15.533Z,44.18
2017-06-10T10:28:15.550Z,44.11
2017-06-10T10:29:15.604Z,43.8
2017-06-10T10:30:15.649Z,43.88
2017-06-10T10:31:15.763Z,44.15
2017-06-10T10:32:15.785Z,44.6
2017-06-10T10:33:15.807Z,44.95
2017-06-10T10:34:15.901Z,45.31
2017-06-10T10:35:15.925Z,45.55
2017-06-10T10:36:15.960Z,44.84
2017-06-10T10:37:16.009Z,42.88
2017-06-10T10:38:16.075Z,41.04
2017-06-10T10:39:16.078Z,39.19
2017-06-10T10:40:16.113Z,37.49
2017-06-10T10:41:16.226Z,35.8
2017-06-10T10:42:16.208Z,34.51
2017-06-10T10:43:16.278Z,34.45
2017-06-10T10:44:16.305Z,34.72
2017-06-10T10:45:16.354Z,34.66
2017-06-10T10:46:16.435Z,34.27
2017-06-10T10:47:16.462Z,33.46
2017-06-10T10:48:16.525Z,32.59
2017-06-10T10:49:16.524Z,31.81
2017-06-10T10:50:16.704Z,31.36
2017-06-10T10:51:16.615Z,30.89
2017-06-10T10:52:16.669Z,31.28
2017-06-10T10:53:16.707Z,32.28
2017-06-10T10:54:16.756Z,33.78
2017-06-10T10:55:16.961Z,35.15
2017-06-10T10:56:16.853Z,36.59
2017-06-10T10:57:16.909Z,37.8
2017-06-10T10:58:16.911Z,39.03
2017-06-10T10:59:16.978Z,39.88
2017-06-10T11:00:17.195Z,40.65
2017-06-10T11:01:17.097Z,41.31
2017-06-10T11:02:17.117Z,41.31
2017-06-10T11:03:17.142Z,41.01
2017-06-10T11:04:17.175Z,40.3
2017-06-10T11:05:17.214Z,38.97
2017-06-10T11:06:17.267Z,37.04
2017-06-10T11:07:17.300Z,35.34
2017-06-10T11:08:17.372Z,33.81
2017-06-10T11:09:17.416Z,32.8
2017-06-10T11:10:17.489Z,32.17
2017-06-10T11:11:17.491Z,32.64
2017-06-10T11:12:17.515Z,33.46
2017-06-10T11:13:17.573Z,34.52
2017-06-10T11:14:17.599Z,35.34
2017-06-10T11:15:17.641Z,35.83
2017-06-10T11:16:17.717Z,36.49
2017-06-10T11:17:17.764Z,37.14
2017-06-10T11:18:17.761Z,36.74
2017-06-10T11:19:17.806Z,36.37
2017-06-10T11:20:17.917Z,36.17
2017-06-10T11:21:17.954Z,36.3
2017-06-10T11:22:17.943Z,36.36
2017-06-10T11:23:18.012Z,36.81
2017-06-10T11:24:18.004Z,37.29
2017-06-10T11:25:18.121Z,37.86
2017-06-10T11:26:18.105Z,38.33
2017-06-10T11:27:18.151Z,38.85
2017-06-10T11:28:18.221Z,39.03
2017-06-10T11:29:18.257Z,38.35
2017-06-10T11:30:18.312Z,37.26
2017-06-10T11:31:18.311Z,35.96
2017-06-10T11:32:18.381Z,34.67
2017-06-10T11:33:18.412Z,33.4
2017-06-10T11:34:18.467Z,32.34
2017-06-10T11:35:18.502Z,31.34
2017-06-10T11:36:18.511Z,30.48
2017-06-10T11:37:18.578Z,29.65
2017-06-10T11:38:18.615Z,28.97
2017-06-10T11:39:18.633Z,28.49
2017-06-10T11:40:18.949Z,28.21
2017-06-10T11:41:18.712Z,27.99
2017-06-10T11:42:18.768Z,27.8
2017-06-10T11:43:18.832Z,27.66
2017-06-10T11:44:18.892Z,27.62
2017-06-10T11:45:18.912Z,27.59
2017-06-10T11:46:18.923Z,27.34
2017-06-10T11:47:18.954Z,27.12
2017-06-10T11:48:19.004Z,27.01
2017-06-10T11:49:19.099Z,26.89
2017-06-10T11:50:19.116Z,26.84
2017-06-10T11:51:19.127Z,26.84
2017-06-10T11:52:19.221Z,26.84
2017-06-10T11:53:19.204Z,26.93
2017-06-10T11:54:19.315Z,26.84
2017-06-10T11:55:19.329Z,26.89
2017-06-10T11:56:19.321Z,26.91
2017-06-10T11:57:19.369Z,26.97
2017-06-10T11:58:19.405Z,26.97
2017-06-10T11:59:19.486Z,27.04
2017-06-10T12:00:19.497Z,27.04
2017-06-10T12:01:20.175Z,26.99
2017-06-10T12:02:19.558Z,26.82
2017-06-10T12:03:19.603Z,26.74
2017-06-10T12:04:19.687Z,26.53
2017-06-10T12:05:19.928Z,26.47
2017-06-10T12:06:19.752Z,26.42
2017-06-10T12:07:19.828Z,26.47
2017-06-10T12:08:19.811Z,26.45
2017-06-10T12:09:19.851Z,26.49
2017-06-10T12:10:19.926Z,26.54
2017-06-10T12:11:19.939Z,26.71
2017-06-10T12:12:19.972Z,26.84
2017-06-10T12:13:20.057Z,27.09
2017-06-10T12:14:20.085Z,27.13
2017-06-10T12:15:20.102Z,27.12
2017-06-10T12:16:20.181Z,27.24
2017-06-10T12:17:20.173Z,27.3
2017-06-10T12:18:20.198Z,27.45
2017-06-10T12:19:20.313Z,27.57
2017-06-10T12:20:20.332Z,27.62
2017-06-10T12:21:20.327Z,27.75
2017-06-10T12:22:20.377Z,27.62
2017-06-10T12:23:20.409Z,27.37
2017-06-10T12:24:20.446Z,27.26
2017-06-10T12:25:20.538Z,27.16
2017-06-10T12:26:20.551Z,27.15
2017-06-10T12:27:20.577Z,27.12
2017-06-10T12:28:20.603Z,27.28
2017-06-10T12:29:20.651Z,27.28
2017-06-10T12:30:20.723Z,27.11
2017-06-10T12:31:20.777Z,27.08
2017-06-10T12:32:20.792Z,27.06
2017-06-10T12:33:20.844Z,27.09
2017-06-10T12:34:20.896Z,27.09
2017-06-10T12:35:20.953Z,27.37
2017-06-10T12:36:20.962Z,27.61
2017-06-10T12:37:20.995Z,27.69
2017-06-10T12:38:21.052Z,27.91
2017-06-10T12:39:21.059Z,27.94
2017-06-10T12:40:21.103Z,28.02
2017-06-10T12:41:21.190Z,27.93
2017-06-10T12:42:21.194Z,27.79
2017-06-10T12:43:21.283Z,27.53
2017-06-10T12:44:21.297Z,27.31
2017-06-10T12:45:21.304Z,27.05
2017-06-10T12:46:21.411Z,26.72
2017-06-10T12:47:21.413Z,26.57
2017-06-10T12:48:21.424Z,26.37
2017-06-10T12:49:21.526Z,26.41
2017-06-10T12:50:21.529Z,26.44
2017-06-10T12:51:21.578Z,26.45
2017-06-10T12:52:21.622Z,26.54
2017-06-10T12:53:21.651Z,26.67
2017-06-10T12:54:21.699Z,26.72
2017-06-10T12:55:21.870Z,26.82
2017-06-10T12:56:21.754Z,26.87